CDT,Max TemperatureF,Mean TemperatureF,Min TemperatureF,Max Dew PointF,MeanDew PointF,Min DewpointF,Max Humidity, Mean Humidity, Min Humidity, Max Sea Level PressureIn, Mean Sea Level PressureIn, Min Sea Level PressureIn, Max VisibilityMiles, Mean VisibilityMiles, Min VisibilityMiles, Max Wind SpeedMPH, Mean Wind SpeedMPH, Max Gust SpeedMPH,PrecipitationIn, CloudCover, Events, WindDirDegrees
2013-6-1,62,52,42,45,42,37,93,68,39,30.13,30.07,29.91,10,10,8,18,14,28,0.00,3,,360
2013-6-2,64,48,32,45,39,32,100,65,37,30.14,30.07,29.98,10,10,10,12,3,18,0.00,0,,127
2013-6-3,50,47,44,48,44,37,100,85,66,29.99,29.89,29.83,10,8,2,21,11,34,0.17,6,Rain,88
2013-6-4,50,49,48,48,47,46,100,94,87,30.08,29.94,29.85,10,7,2,16,9,22,0.09,7,Rain,24
2013-6-5,59,52,46,52,47,43,100,82,67,30.16,30.12,30.08,10,10,3,15,9,22,0.00,8,Rain,22
2013-6-6,68,52,35,52,43,36,100,71,37,30.11,30.07,30.02,10,8,0,12,3,,0.00,2,Fog,156
2013-6-7,75,60,46,55,49,45,93,63,38,30.01,29.88,29.71,10,10,4,16,8,20,0.00,2,,190
2013-6-8,62,60,55,57,56,52,100,91,68,29.86,29.75,29.69,10,8,1,13,7,,0.06,7,Rain,151
2013-6-9,73,60,46,55,49,46,100,69,38,29.91,29.85,29.74,10,10,5,17,4,25,0.00,1,,208
2013-6-10,77,64,51,57,52,46,94,64,36,29.89,29.80,29.72,10,10,7,22,9,26,0.00,0,,24
2013-6-11,77,62,48,55,49,45,100,62,32,29.96,29.92,29.89,10,10,10,13,3,20,0.00,2,Thunderstorm,103
2013-6-12,73,65,57,57,55,52,94,78,50,30.13,30.07,29.94,10,9,4,12,5,,0.10,4,Rain,317
2013-6-13,73,62,50,57,53,48,100,66,46,30.16,30.06,29.89,10,10,1,21,8,31,0.00,3,,143
2013-6-14,75,63,50,61,54,43,94,67,38,29.93,29.83,29.75,10,10,10,20,9,31,0.00,2,Rain-Thunderstorm,230
2013-6-15,75,60,44,50,46,41,93,61,33,29.96,29.92,29.89,10,10,10,26,10,33,0.00,1,,251
2013-6-16,75,60,44,52,48,41,93,63,36,30.01,29.94,29.92,10,10,7,26,8,38,0.00,1,,282
2013-6-17,64,57,50,55,52,48,100,85,64,30.14,30.08,30.02,10,10,1,16,6,16,0.21,4,Rain-Thunderstorm,300
2013-6-18,77,59,41,59,52,41,100,74,47,30.12,30.04,29.93,10,10,5,10,4,,0.00,0,,151
2013-6-19,84,68,53,63,57,52,94,66,42,29.93,29.83,29.76,10,10,9,23,9,34,0.00,0,,110
2013-6-20,77,70,62,66,62,54,100,79,56,29.89,29.78,29.66,10,10,7,18,12,30,0.04,4,Rain-Thunderstorm,88
2013-6-21,71,65,59,64,63,59,100,94,73,30.02,29.94,29.89,10,6,0,18,6,26,0.32,4,Fog-Rain-Thunderstorm,31
2013-6-22,75,64,53,64,60,54,100,83,61,29.94,29.88,29.75,10,9,1,20,5,29,0.19,3,Rain-Thunderstorm,345
2013-6-23,73,65,57,59,54,48,100,74,43,29.79,29.76,29.67,10,9,2,24,12,33,0.23,4,Rain-Thunderstorm,276
2013-6-24,84,66,48,66,58,48,100,73,42,29.81,29.74,29.67,10,10,10,17,4,23,0.00,1,Rain,147
2013-6-25,82,71,60,70,64,57,100,76,57,29.73,29.65,29.61,10,10,3,17,9,23,0.00,3,Thunderstorm,171
2013-6-26,82,68,55,63,57,52,100,68,39,29.93,29.81,29.72,10,10,10,18,7,24,0.00,1,,272
2013-6-27,80,68,55,57,53,48,94,60,34,30.07,30.00,29.94,10,10,10,20,10,29,0.00,0,,277
2013-6-28,80,68,55,61,55,50,94,65,42,30.14,30.11,30.07,10,10,10,20,8,26,0.00,1,,294
2013-6-29,75,64,53,59,54,48,94,69,50,30.14,30.11,30.10,10,10,6,15,7,22,0.00,2,,317
2013-6-30,77,62,48,59,53,48,100,70,36,30.23,30.19,30.14,10,9,3,12,3,16,0.00,1,,98